This is the latest recevied weather packets stored in our database for station/object Ad4UU. If no packets are shown the sender has not sent any weather packets the latest 10 day(s).
| Time | Temp. | Humidity | Pressure | Rain* | Wind** | Luminosity | Snow |
|---|---|---|---|---|---|---|---|
| 1777293328 | 21.67° C | 93% | 1017.5 hPa | 0 mm | - | - | - |
| 1777290349 | 20.56° C | 97% | 1016.8 hPa | 0 mm | - | - | - |
| 1777289729 | 20.56° C | 98% | 1016.6 hPa | 0 mm | - | - | - |
| 1777289450 | 20.56° C | 98% | 1016.6 hPa | 0 mm | - | - | - |
| 1777288829 | 20° C | 99% | 1016.3 hPa | 0 mm | - | - | - |
| 1777288229 | 20° C | 99% | 1016.2 hPa | 0 mm | - | - | - |
| 1777287928 | 20° C | 99% | 1016.1 hPa | 0 mm | - | - | - |
| 1777286747 | 20° C | 100% | 1015.8 hPa | 0 mm | - | - | - |
| 1777284331 | 17.78° C | 99% | 1015.2 hPa | 0 mm | - | - | - |
| 1777283148 | 17.78° C | 99% | 1015 hPa | 0 mm | - | - | - |
| 1777282249 | 17.78° C | 98% | 1014.8 hPa | 0 mm | - | - | - |
| 1777279553 | 18.33° C | 98% | 1014.4 hPa | 0 mm | - | - | - |
| 1777278028 | 17.78° C | 98% | 1014.3 hPa | 0 mm | - | - | - |
| 1777277431 | 17.78° C | 97% | 1014.4 hPa | 0 mm | - | - | - |
| 1777277129 | 17.78° C | 97% | 1014.3 hPa | 0 mm | - | - | - |
| 1777276233 | 17.78° C | 97% | 1014.3 hPa | 0 mm | - | - | - |
| 1777273531 | 18.33° C | 96% | 1013.9 hPa | 0 mm | - | - | - |
| 1777272931 | 18.89° C | 97% | 1013.7 hPa | 0 mm | - | - | - |
| 1777272031 | 19.44° C | 97% | 1013.9 hPa | 0 mm | - | - | - |
| 1777269651 | 19.44° C | 96% | 1014.1 hPa | 0 mm | - | - | - |
| 1777265429 | 20.56° C | 95% | 1014.5 hPa | 0 mm | - | - | - |
| 1777263030 | 21.11° C | 95% | 1014.3 hPa | 0 mm | - | - | - |
| 1777260329 | 21.11° C | 89% | 1014.4 hPa | 0 mm | - | - | - |
| 1777260030 | 21.67° C | 92% | 1014.4 hPa | 0 mm | - | - | - |
| 1777259753 | 21.67° C | 92% | 1014.3 hPa | 0 mm | - | - | - |
* Rain latest hour (hover to see other rain measurements)
** Current wind speed in m/s (hover to see current wind gust speed)